sensor_id;sensor_type;location;lat;lon;timestamp;pressure;altitude;pressure_sealevel;temperature;humidity
4570;BME280;2297;51.442;6.996;2023-05-08T00:02:24;100711.53;;;18.44;55.01
4570;BME280;2297;51.442;6.996;2023-05-08T00:04:51;100708.88;;;18.44;54.88
4570;BME280;2297;51.442;6.996;2023-05-08T00:07:19;100711.81;;;18.38;54.86
4570;BME280;2297;51.442;6.996;2023-05-08T00:09:45;100712.84;;;18.35;54.78
4570;BME280;2297;51.442;6.996;2023-05-08T00:12:12;100718.19;;;18.35;54.86
4570;BME280;2297;51.442;6.996;2023-05-08T00:14:39;100716.28;;;18.37;54.56
4570;BME280;2297;51.442;6.996;2023-05-08T00:17:06;100714.53;;;18.36;54.75
4570;BME280;2297;51.442;6.996;2023-05-08T00:19:32;100710.94;;;18.37;54.45
4570;BME280;2297;51.442;6.996;2023-05-08T00:21:59;100711.25;;;18.31;54.71
4570;BME280;2297;51.442;6.996;2023-05-08T00:24:27;100706.03;;;18.28;54.67
4570;BME280;2297;51.442;6.996;2023-05-08T00:26:53;100711.69;;;18.22;54.58
4570;BME280;2297;51.442;6.996;2023-05-08T00:29:20;100711.81;;;18.19;54.59
4570;BME280;2297;51.442;6.996;2023-05-08T00:31:47;100710.06;;;18.18;54.47
4570;BME280;2297;51.442;6.996;2023-05-08T00:34:13;100709.22;;;18.17;54.38
4570;BME280;2297;51.442;6.996;2023-05-08T00:36:40;100715.41;;;18.18;54.33
4570;BME280;2297;51.442;6.996;2023-05-08T00:39:06;100710.94;;;18.18;54.59
4570;BME280;2297;51.442;6.996;2023-05-08T00:41:34;100708.34;;;18.17;54.71
4570;BME280;2297;51.442;6.996;2023-05-08T00:44:02;100711.97;;;18.16;54.64
4570;BME280;2297;51.442;6.996;2023-05-08T00:46:29;100713.69;;;18.17;54.76
4570;BME280;2297;51.442;6.996;2023-05-08T00:48:56;100704.88;;;18.15;54.87
4570;BME280;2297;51.442;6.996;2023-05-08T00:51:23;100710.06;;;18.18;54.89
4570;BME280;2297;51.442;6.996;2023-05-08T00:53:50;100710.88;;;18.20;54.61
4570;BME280;2297;51.442;6.996;2023-05-08T00:56:17;100712.81;;;18.16;54.74
4570;BME280;2297;51.442;6.996;2023-05-08T00:58:59;100706.63;;;18.16;54.85
4570;BME280;2297;51.442;6.996;2023-05-08T01:01:26;100715.56;;;18.15;54.87
4570;BME280;2297;51.442;6.996;2023-05-08T01:03:52;100709.38;;;18.14;54.62
4570;BME280;2297;51.442;6.996;2023-05-08T01:06:19;100713.81;;;18.13;54.52
4570;BME280;2297;51.442;6.996;2023-05-08T01:08:46;100710.44;;;18.10;54.30
4570;BME280;2297;51.442;6.996;2023-05-08T01:11:19;100720.41;;;18.06;54.04
4570;BME280;2297;51.442;6.996;2023-05-08T01:14:00;100721.47;;;18.02;54.07
4570;BME280;2297;51.442;6.996;2023-05-08T01:16:37;100724.94;;;18.04;53.74
4570;BME280;2297;51.442;6.996;2023-05-08T01:19:22;100714.25;;;18.04;53.77
4570;BME280;2297;51.442;6.996;2023-05-08T01:21:56;100718.00;;;18.00;53.55
4570;BME280;2297;51.442;6.996;2023-05-08T01:24:56;100719.34;;;17.90;53.92
4570;BME280;2297;51.442;6.996;2023-05-08T01:30:43;100710.31;;;17.92;53.67
4570;BME280;2297;51.442;6.996;2023-05-08T01:33:21;100713.22;;;17.88;53.72
4570;BME280;2297;51.442;6.996;2023-05-08T01:35:53;100720.44;;;17.86;53.74
4570;BME280;2297;51.442;6.996;2023-05-08T01:38:29;100722.16;;;17.87;53.67
4570;BME280;2297;51.442;6.996;2023-05-08T01:41:04;100715.00;;;17.87;53.92
4570;BME280;2297;51.442;6.996;2023-05-08T01:43:40;100717.91;;;17.83;53.69
4570;BME280;2297;51.442;6.996;2023-05-08T01:46:15;100721.50;;;17.82;53.68
4570;BME280;2297;51.442;6.996;2023-05-08T01:48:48;100719.13;;;17.75;53.84
4570;BME280;2297;51.442;6.996;2023-05-08T01:51:17;100726.06;;;17.79;53.85
4570;BME280;2297;51.442;6.996;2023-05-08T01:53:48;100719.13;;;17.75;54.01
4570;BME280;2297;51.442;6.996;2023-05-08T01:56:20;100718.25;;;17.75;54.12
4570;BME280;2297;51.442;6.996;2023-05-08T01:58:49;100726.19;;;17.76;53.92
4570;BME280;2297;51.442;6.996;2023-05-08T02:01:19;100724.47;;;17.75;54.00
4570;BME280;2297;51.442;6.996;2023-05-08T02:03:50;100729.81;;;17.75;53.88
4570;BME280;2297;51.442;6.996;2023-05-08T02:06:20;100730.75;;;17.74;54.02
4570;BME280;2297;51.442;6.996;2023-05-08T02:08:48;100734.25;;;17.75;53.88
4570;BME280;2297;51.442;6.996;2023-05-08T02:11:16;100739.69;;;17.73;54.45
4570;BME280;2297;51.442;6.996;2023-05-08T02:13:46;100736.16;;;17.73;54.08
4570;BME280;2297;51.442;6.996;2023-05-08T02:16:14;100738.75;;;17.74;53.93
4570;BME280;2297;51.442;6.996;2023-05-08T02:18:46;100741.53;;;17.71;54.27
4570;BME280;2297;51.442;6.996;2023-05-08T02:21:16;100747.94;;;17.67;54.47
4570;BME280;2297;51.442;6.996;2023-05-08T02:23:45;100745.41;;;17.64;54.42
4570;BME280;2297;51.442;6.996;2023-05-08T02:26:14;100743.56;;;17.65;54.65
4570;BME280;2297;51.442;6.996;2023-05-08T02:28:41;100748.22;;;17.61;54.66
4570;BME280;2297;51.442;6.996;2023-05-08T02:31:15;100746.47;;;17.60;54.82
4570;BME280;2297;51.442;6.996;2023-05-08T02:33:43;100750.06;;;17.59;54.95
4570;BME280;2297;51.442;6.996;2023-05-08T02:36:14;100748.31;;;17.58;54.96
4570;BME280;2297;51.442;6.996;2023-05-08T02:38:44;100750.31;;;17.53;55.12
4570;BME280;2297;51.442;6.996;2023-05-08T02:41:14;100752.88;;;17.56;55.21
4570;BME280;2297;51.442;6.996;2023-05-08T02:43:43;100753.00;;;17.53;55.52
4570;BME280;2297;51.442;6.996;2023-05-08T02:46:17;100752.19;;;17.51;55.80
4570;BME280;2297;51.442;6.996;2023-05-08T02:48:46;100759.41;;;17.49;55.84
4570;BME280;2297;51.442;6.996;2023-05-08T02:51:20;100752.38;;;17.46;55.90
4570;BME280;2297;51.442;6.996;2023-05-08T02:53:54;100753.53;;;17.40;56.14
4570;BME280;2297;51.442;6.996;2023-05-08T02:56:30;100750.84;;;17.40;56.31
4570;BME280;2297;51.442;6.996;2023-05-08T02:59:01;100743.78;;;17.39;56.48
4570;BME280;2297;51.442;6.996;2023-05-08T03:01:39;100740.31;;;17.37;56.63
4570;BME280;2297;51.442;6.996;2023-05-08T03:04:08;100744.72;;;17.38;56.64
4570;BME280;2297;51.442;6.996;2023-05-08T03:06:40;100741.25;;;17.36;56.79
4570;BME280;2297;51.442;6.996;2023-05-08T03:09:15;100741.31;;;17.35;56.91
4570;BME280;2297;51.442;6.996;2023-05-08T03:11:47;100746.59;;;17.36;56.87
4570;BME280;2297;51.442;6.996;2023-05-08T03:14:19;100753.75;;;17.36;56.98
4570;BME280;2297;51.442;6.996;2023-05-08T03:16:49;100750.25;;;17.34;56.97
4570;BME280;2297;51.442;6.996;2023-05-08T03:22:27;100739.56;;;17.34;56.85
4570;BME280;2297;51.442;6.996;2023-05-08T03:24:58;100751.94;;;17.36;57.04
4570;BME280;2297;51.442;6.996;2023-05-08T03:27:27;100746.44;;;17.39;56.68
4570;BME280;2297;51.442;6.996;2023-05-08T03:29:55;100742.31;;;17.32;56.91
4570;BME280;2297;51.442;6.996;2023-05-08T03:32:25;100740.63;;;17.29;57.07
4570;BME280;2297;51.442;6.996;2023-05-08T03:34:54;100731.88;;;17.26;57.13
4570;BME280;2297;51.442;6.996;2023-05-08T03:37:21;100731.09;;;17.24;57.13
4570;BME280;2297;51.442;6.996;2023-05-08T03:39:47;100730.50;;;17.17;57.25
4570;BME280;2297;51.442;6.996;2023-05-08T03:42:15;100730.44;;;17.19;57.20
4570;BME280;2297;51.442;6.996;2023-05-08T03:44:46;100734.03;;;17.18;57.40
4570;BME280;2297;51.442;6.996;2023-05-08T03:47:14;100734.03;;;17.18;57.36
4570;BME280;2297;51.442;6.996;2023-05-08T03:49:44;100728.88;;;17.13;57.45
4570;BME280;2297;51.442;6.996;2023-05-08T03:52:12;100725.16;;;17.17;57.42
4570;BME280;2297;51.442;6.996;2023-05-08T03:54:39;100729.53;;;17.18;57.49
4570;BME280;2297;51.442;6.996;2023-05-08T03:57:05;100727.69;;;17.20;57.45
4570;BME280;2297;51.442;6.996;2023-05-08T03:59:38;100732.16;;;17.20;57.56
4570;BME280;2297;51.442;6.996;2023-05-08T04:02:13;100732.09;;;17.21;57.11
4570;BME280;2297;51.442;6.996;2023-05-08T04:04:44;100737.38;;;17.23;57.42
4570;BME280;2297;51.442;6.996;2023-05-08T04:07:14;100742.69;;;17.23;57.44
4570;BME280;2297;51.442;6.996;2023-05-08T04:09:50;100742.56;;;17.26;57.24
4570;BME280;2297;51.442;6.996;2023-05-08T04:12:25;100739.78;;;17.29;57.29
4570;BME280;2297;51.442;6.996;2023-05-08T04:15:03;100747.78;;;17.29;57.18
4570;BME280;2297;51.442;6.996;2023-05-08T04:17:35;100746.78;;;17.32;57.12
4570;BME280;2297;51.442;6.996;2023-05-08T04:20:06;100748.66;;;17.29;57.35
4570;BME280;2297;51.442;6.996;2023-05-08T04:22:37;100748.56;;;17.31;57.32
4570;BME280;2297;51.442;6.996;2023-05-08T04:25:06;100753.00;;;17.32;57.26
4570;BME280;2297;51.442;6.996;2023-05-08T04:27:35;100745.78;;;17.34;57.25
4570;BME280;2297;51.442;6.996;2023-05-08T04:30:04;100751.09;;;17.34;57.21
4570;BME280;2297;51.442;6.996;2023-05-08T04:32:31;100751.00;;;17.37;57.26
4570;BME280;2297;51.442;6.996;2023-05-08T04:34:59;100749.31;;;17.35;57.32
4570;BME280;2297;51.442;6.996;2023-05-08T04:37:27;100757.19;;;17.38;57.19
4570;BME280;2297;51.442;6.996;2023-05-08T04:39:55;100756.34;;;17.37;57.31
4570;BME280;2297;51.442;6.996;2023-05-08T04:42:22;100751.94;;;17.36;57.32
4570;BME280;2297;51.442;6.996;2023-05-08T04:44:50;100760.78;;;17.37;57.45
4570;BME280;2297;51.442;6.996;2023-05-08T04:47:18;100759.78;;;17.39;57.45
4570;BME280;2297;51.442;6.996;2023-05-08T04:49:45;100761.59;;;17.39;57.34
4570;BME280;2297;51.442;6.996;2023-05-08T04:52:11;100763.41;;;17.38;57.17
4570;BME280;2297;51.442;6.996;2023-05-08T04:54:38;100761.69;;;17.37;57.32
4570;BME280;2297;51.442;6.996;2023-05-08T04:57:04;100770.47;;;17.39;57.21
4570;BME280;2297;51.442;6.996;2023-05-08T04:59:32;100763.41;;;17.38;57.08
4570;BME280;2297;51.442;6.996;2023-05-08T05:01:59;100769.63;;;17.39;56.90
4570;BME280;2297;51.442;6.996;2023-05-08T05:04:28;100767.88;;;17.38;56.66
4570;BME280;2297;51.442;6.996;2023-05-08T05:06:54;100770.47;;;17.39;56.88
4570;BME280;2297;51.442;6.996;2023-05-08T05:09:21;100776.56;;;17.43;56.75
4570;BME280;2297;51.442;6.996;2023-05-08T05:11:49;100775.69;;;17.42;56.65
4570;BME280;2297;51.442;6.996;2023-05-08T05:14:16;100775.81;;;17.39;56.78
4570;BME280;2297;51.442;6.996;2023-05-08T05:16:42;100773.97;;;17.41;56.94
4570;BME280;2297;51.442;6.996;2023-05-08T05:19:09;100774.34;;;17.32;57.18
4570;BME280;2297;51.442;6.996;2023-05-08T05:21:37;100783.28;;;17.31;57.37
4570;BME280;2297;51.442;6.996;2023-05-08T05:24:05;100792.78;;;17.38;57.28
4570;BME280;2297;51.442;6.996;2023-05-08T05:26:32;100790.91;;;17.40;57.15
4570;BME280;2297;51.442;6.996;2023-05-08T05:28:58;100798.16;;;17.37;56.80
4570;BME280;2297;51.442;6.996;2023-05-08T05:31:26;100788.91;;;17.45;56.74
4570;BME280;2297;51.442;6.996;2023-05-08T05:33:53;100786.88;;;17.30;57.07
4570;BME280;2297;51.442;6.996;2023-05-08T05:36:20;100794.31;;;17.44;56.89
4570;BME280;2297;51.442;6.996;2023-05-08T05:38:48;100784.25;;;17.51;56.67
4570;BME280;2297;51.442;6.996;2023-05-08T05:41:15;100794.53;;;17.60;56.46
4570;BME280;2297;51.442;6.996;2023-05-08T05:43:42;100792.78;;;17.59;56.45
4570;BME280;2297;51.442;6.996;2023-05-08T05:46:09;100789.97;;;17.62;56.29
4570;BME280;2297;51.442;6.996;2023-05-08T05:48:35;100788.50;;;17.55;56.54
4570;BME280;2297;51.442;6.996;2023-05-08T05:51:03;100791.19;;;17.55;56.66
4570;BME280;2297;51.442;6.996;2023-05-08T05:53:30;100791.03;;;17.58;56.65
4570;BME280;2297;51.442;6.996;2023-05-08T05:55:58;100789.81;;;17.67;56.69
4570;BME280;2297;51.442;6.996;2023-05-08T06:01:46;100791.78;;;17.61;56.78
4570;BME280;2297;51.442;6.996;2023-05-08T06:04:13;100799.88;;;17.60;56.82
4570;BME280;2297;51.442;6.996;2023-05-08T06:06:39;100796.47;;;17.56;56.86
4570;BME280;2297;51.442;6.996;2023-05-08T06:09:06;100802.63;;;17.58;57.06
4570;BME280;2297;51.442;6.996;2023-05-08T06:11:34;100803.31;;;17.62;56.97
4570;BME280;2297;51.442;6.996;2023-05-08T06:14:01;100797.91;;;17.65;57.05
4570;BME280;2297;51.442;6.996;2023-05-08T06:16:27;100797.78;;;17.68;57.05
4570;BME280;2297;51.442;6.996;2023-05-08T06:18:54;100797.69;;;17.70;56.91
4570;BME280;2297;51.442;6.996;2023-05-08T06:21:21;100797.78;;;17.68;56.96
4570;BME280;2297;51.442;6.996;2023-05-08T06:23:47;100799.66;;;17.66;56.99
4570;BME280;2297;51.442;6.996;2023-05-08T06:26:14;100795.09;;;17.68;57.33
4570;BME280;2297;51.442;6.996;2023-05-08T06:28:42;100804.84;;;17.69;57.05
4570;BME280;2297;51.442;6.996;2023-05-08T06:31:09;100800.59;;;17.65;57.01
4570;BME280;2297;51.442;6.996;2023-05-08T06:33:35;100794.84;;;17.74;57.17
4570;BME280;2297;51.442;6.996;2023-05-08T06:36:03;100798.97;;;17.82;56.87
4570;BME280;2297;51.442;6.996;2023-05-08T06:38:30;100787.03;;;17.90;56.50
4570;BME280;2297;51.442;6.996;2023-05-08T06:40:57;100781.19;;;17.81;57.06
4570;BME280;2297;51.442;6.996;2023-05-08T06:43:23;100784.28;;;17.92;56.53
4570;BME280;2297;51.442;6.996;2023-05-08T06:45:51;100782.41;;;17.94;56.52
4570;BME280;2297;51.442;6.996;2023-05-08T06:48:18;100787.63;;;17.97;56.58
4570;BME280;2297;51.442;6.996;2023-05-08T06:50:45;100784.28;;;17.92;56.83
4570;BME280;2297;51.442;6.996;2023-05-08T06:53:12;100785.72;;;17.99;56.31
4570;BME280;2297;51.442;6.996;2023-05-08T06:55:41;100798.31;;;17.97;56.22
4570;BME280;2297;51.442;6.996;2023-05-08T06:58:09;100801.91;;;17.96;56.13
4570;BME280;2297;51.442;6.996;2023-05-08T07:00:36;100805.38;;;17.98;55.66
4570;BME280;2297;51.442;6.996;2023-05-08T07:03:04;100800.16;;;17.95;55.57
4570;BME280;2297;51.442;6.996;2023-05-08T07:05:31;100802.31;;;17.87;55.67
4570;BME280;2297;51.442;6.996;2023-05-08T07:07:57;100807.50;;;17.90;55.78
4570;BME280;2297;51.442;6.996;2023-05-08T07:10:24;100809.47;;;17.64;55.92
4570;BME280;2297;51.442;6.996;2023-05-08T07:12:51;100811.31;;;17.63;56.07
4570;BME280;2297;51.442;6.996;2023-05-08T07:15:18;100813.78;;;17.68;55.96
4570;BME280;2297;51.442;6.996;2023-05-08T07:17:44;100817.00;;;17.76;56.21
4570;BME280;2297;51.442;6.996;2023-05-08T07:20:12;100816.88;;;17.79;55.98
4570;BME280;2297;51.442;6.996;2023-05-08T07:22:39;100821.88;;;17.44;56.96
4570;BME280;2297;51.442;6.996;2023-05-08T07:25:07;100822.69;;;17.69;56.36
4570;BME280;2297;51.442;6.996;2023-05-08T07:27:33;100825.97;;;17.53;56.25
4570;BME280;2297;51.442;6.996;2023-05-08T07:30:01;100827.75;;;17.53;56.35
4570;BME280;2297;51.442;6.996;2023-05-08T07:32:28;100834.28;;;17.45;56.58
4570;BME280;2297;51.442;6.996;2023-05-08T07:34:55;100826.22;;;17.25;57.06
4570;BME280;2297;51.442;6.996;2023-05-08T07:37:24;100829.63;;;17.51;56.47
4570;BME280;2297;51.442;6.996;2023-05-08T07:39:51;100839.56;;;17.25;55.76
4570;BME280;2297;51.442;6.996;2023-05-08T07:42:17;100846.16;;;17.38;54.22
4570;BME280;2297;51.442;6.996;2023-05-08T07:44:45;100837.66;;;17.51;53.49
4570;BME280;2297;51.442;6.996;2023-05-08T07:47:12;100846.72;;;17.69;53.24
4570;BME280;2297;51.442;6.996;2023-05-08T07:49:38;100834.75;;;17.77;53.42
4570;BME280;2297;51.442;6.996;2023-05-08T07:52:05;100836.50;;;17.99;52.95
4570;BME280;2297;51.442;6.996;2023-05-08T07:54:33;100842.44;;;18.06;52.76
4570;BME280;2297;51.442;6.996;2023-05-08T07:57:00;100838.34;;;18.18;52.46
4570;BME280;2297;51.442;6.996;2023-05-08T07:59:26;100846.78;;;18.29;52.45
4570;BME280;2297;51.442;6.996;2023-05-08T08:01:53;100849.34;;;18.11;52.94
4570;BME280;2297;51.442;6.996;2023-05-08T08:04:19;100842.84;;;18.17;52.80
4570;BME280;2297;51.442;6.996;2023-05-08T08:06:46;100839.81;;;18.45;52.17
4570;BME280;2297;51.442;6.996;2023-05-08T08:09:13;100830.84;;;18.47;52.21
4570;BME280;2297;51.442;6.996;2023-05-08T08:11:41;100843.25;;;18.68;51.78
4570;BME280;2297;51.442;6.996;2023-05-08T08:14:07;100842.00;;;18.17;52.67
4570;BME280;2297;51.442;6.996;2023-05-08T08:16:34;100844.03;;;18.31;52.52
4570;BME280;2297;51.442;6.996;2023-05-08T08:19:00;100835.56;;;18.21;53.09
4570;BME280;2297;51.442;6.996;2023-05-08T08:21:27;100842.50;;;18.45;52.99
4570;BME280;2297;51.442;6.996;2023-05-08T08:23:55;100839.56;;;17.90;54.68
4570;BME280;2297;51.442;6.996;2023-05-08T08:26:23;100842.50;;;18.45;53.50
4570;BME280;2297;51.442;6.996;2023-05-08T08:28:51;100835.78;;;18.56;52.91
4570;BME280;2297;51.442;6.996;2023-05-08T08:31:17;100842.88;;;18.57;53.35
4570;BME280;2297;51.442;6.996;2023-05-08T08:33:45;100839.84;;;18.25;53.82
4570;BME280;2297;51.442;6.996;2023-05-08T08:36:12;100835.06;;;18.32;53.77
4570;BME280;2297;51.442;6.996;2023-05-08T08:38:38;100839.19;;;18.59;53.00
4570;BME280;2297;51.442;6.996;2023-05-08T08:41:05;100837.91;;;18.68;53.13
4570;BME280;2297;51.442;6.996;2023-05-08T08:43:32;100825.00;;;18.95;52.66
4570;BME280;2297;51.442;6.996;2023-05-08T08:46:02;100830.06;;;18.83;52.82
4570;BME280;2297;51.442;6.996;2023-05-08T08:48:36;100835.56;;;18.79;52.71
4570;BME280;2297;51.442;6.996;2023-05-08T08:51:13;100835.16;;;18.70;52.21
4570;BME280;2297;51.442;6.996;2023-05-08T08:53:42;100836.06;;;18.88;52.13
4570;BME280;2297;51.442;6.996;2023-05-08T08:56:10;100831.53;;;18.90;52.17
4570;BME280;2297;51.442;6.996;2023-05-08T08:58:42;100834.25;;;19.07;52.12
4570;BME280;2297;51.442;6.996;2023-05-08T09:01:15;100829.19;;;19.01;52.07
4570;BME280;2297;51.442;6.996;2023-05-08T09:03:43;100827.31;;;19.03;52.51
4570;BME280;2297;51.442;6.996;2023-05-08T09:06:10;100831.88;;;19.01;52.13
4570;BME280;2297;51.442;6.996;2023-05-08T09:08:38;100826.47;;;19.22;51.39
4570;BME280;2297;51.442;6.996;2023-05-08T09:11:05;100833.50;;;19.42;50.42
4570;BME280;2297;51.442;6.996;2023-05-08T09:13:32;100835.91;;;19.29;50.46
4570;BME280;2297;51.442;6.996;2023-05-08T09:15:59;100833.41;;;19.61;49.21
4570;BME280;2297;51.442;6.996;2023-05-08T09:18:27;100836.75;;;19.66;49.03
4570;BME280;2297;51.442;6.996;2023-05-08T09:20:54;100839.56;;;19.81;48.75
4570;BME280;2297;51.442;6.996;2023-05-08T09:23:21;100837.69;;;19.83;49.08
4570;BME280;2297;51.442;6.996;2023-05-08T09:25:48;100843.38;;;19.22;50.44
4570;BME280;2297;51.442;6.996;2023-05-08T09:28:16;100846.50;;;19.67;49.91
4570;BME280;2297;51.442;6.996;2023-05-08T09:30:53;100843.66;;;19.35;49.93
4570;BME280;2297;51.442;6.996;2023-05-08T09:33:23;100845.03;;;19.25;49.61
4570;BME280;2297;51.442;6.996;2023-05-08T09:35:52;100849.88;;;19.17;49.67
4570;BME280;2297;51.442;6.996;2023-05-08T09:38:32;100844.25;;;19.23;49.93
4570;BME280;2297;51.442;6.996;2023-05-08T09:41:10;100847.22;;;19.53;49.77
4570;BME280;2297;51.442;6.996;2023-05-08T09:43:37;100844.09;;;19.07;49.90
4570;BME280;2297;51.442;6.996;2023-05-08T09:46:21;100856.69;;;18.86;50.22
4570;BME280;2297;51.442;6.996;2023-05-08T09:48:48;100851.75;;;19.15;49.73
4570;BME280;2297;51.442;6.996;2023-05-08T09:51:16;100855.38;;;19.14;49.50
4570;BME280;2297;51.442;6.996;2023-05-08T09:53:43;100854.38;;;19.53;49.21
4570;BME280;2297;51.442;6.996;2023-05-08T09:56:10;100856.47;;;19.65;48.86
4570;BME280;2297;51.442;6.996;2023-05-08T09:58:37;100857.31;;;19.48;48.68
4570;BME280;2297;51.442;6.996;2023-05-08T10:01:05;100849.97;;;19.52;48.35
4570;BME280;2297;51.442;6.996;2023-05-08T10:03:47;100852.63;;;19.15;48.98
4570;BME280;2297;51.442;6.996;2023-05-08T10:06:14;100852.06;;;19.27;48.90
4570;BME280;2297;51.442;6.996;2023-05-08T10:08:43;100852.72;;;19.50;48.71
4570;BME280;2297;51.442;6.996;2023-05-08T10:11:14;100847.28;;;19.52;48.41
4570;BME280;2297;51.442;6.996;2023-05-08T10:13:41;100844.56;;;19.53;48.32
4570;BME280;2297;51.442;6.996;2023-05-08T10:16:38;100852.69;;;19.69;47.72
4570;BME280;2297;51.442;6.996;2023-05-08T10:19:11;100848.72;;;19.76;47.65
4570;BME280;2297;51.442;6.996;2023-05-08T10:21:40;100850.13;;;19.49;47.79
4570;BME280;2297;51.442;6.996;2023-05-08T10:24:13;100842.56;;;19.57;47.61
4570;BME280;2297;51.442;6.996;2023-05-08T10:26:42;100841.31;;;19.47;47.45
4570;BME280;2297;51.442;6.996;2023-05-08T10:29:16;100843.19;;;19.44;47.99
4570;BME280;2297;51.442;6.996;2023-05-08T10:31:45;100843.75;;;19.69;48.04
4570;BME280;2297;51.442;6.996;2023-05-08T10:34:15;100848.25;;;19.51;48.41
4570;BME280;2297;51.442;6.996;2023-05-08T10:36:43;100845.75;;;19.83;48.46
4570;BME280;2297;51.442;6.996;2023-05-08T10:39:12;100850.19;;;20.01;47.12
4570;BME280;2297;51.442;6.996;2023-05-08T10:41:40;100835.34;;;19.94;46.04
4570;BME280;2297;51.442;6.996;2023-05-08T10:44:08;100831.63;;;19.79;47.09
4570;BME280;2297;51.442;6.996;2023-05-08T10:46:39;100832.66;;;19.76;47.31
4570;BME280;2297;51.442;6.996;2023-05-08T10:49:15;100824.06;;;19.87;47.48
4570;BME280;2297;51.442;6.996;2023-05-08T10:51:52;100821.94;;;19.94;47.44
4570;BME280;2297;51.442;6.996;2023-05-08T10:54:31;100821.94;;;20.11;46.74
4570;BME280;2297;51.442;6.996;2023-05-08T10:57:09;100822.47;;;20.18;47.07
4570;BME280;2297;51.442;6.996;2023-05-08T10:59:37;100826.03;;;20.19;47.30
4570;BME280;2297;51.442;6.996;2023-05-08T11:02:04;100822.47;;;20.18;47.39
4570;BME280;2297;51.442;6.996;2023-05-08T11:04:31;100826.19;;;20.16;47.60
4570;BME280;2297;51.442;6.996;2023-05-08T11:06:58;100825.03;;;20.37;46.70
4570;BME280;2297;51.442;6.996;2023-05-08T11:09:28;100828.22;;;20.28;46.97
4570;BME280;2297;51.442;6.996;2023-05-08T11:12:06;100819.34;;;20.43;46.98
4570;BME280;2297;51.442;6.996;2023-05-08T11:14:34;100820.78;;;20.67;46.60
4570;BME280;2297;51.442;6.996;2023-05-08T11:17:03;100817.75;;;20.73;46.24
4570;BME280;2297;51.442;6.996;2023-05-08T11:19:30;100818.91;;;20.85;46.47
4570;BME280;2297;51.442;6.996;2023-05-08T11:22:22;100810.03;;;20.83;46.09
4570;BME280;2297;51.442;6.996;2023-05-08T11:25:02;100813.84;;;20.94;46.09
4570;BME280;2297;51.442;6.996;2023-05-08T11:27:35;100816.72;;;20.75;46.56
4570;BME280;2297;51.442;6.996;2023-05-08T11:30:37;100811.78;;;20.84;45.82
4570;BME280;2297;51.442;6.996;2023-05-08T11:33:13;100809.94;;;21.00;44.97
4570;BME280;2297;51.442;6.996;2023-05-08T11:35:47;100807.72;;;20.76;45.95
4570;BME280;2297;51.442;6.996;2023-05-08T11:38:19;100805.25;;;21.20;45.73
4570;BME280;2297;51.442;6.996;2023-05-08T11:40:58;100807.94;;;21.20;44.72
4570;BME280;2297;51.442;6.996;2023-05-08T11:43:30;100805.59;;;21.30;44.45
4570;BME280;2297;51.442;6.996;2023-05-08T11:46:00;100794.78;;;21.31;44.29
4570;BME280;2297;51.442;6.996;2023-05-08T11:48:27;100793.91;;;21.61;44.62
4570;BME280;2297;51.442;6.996;2023-05-08T11:50:54;100795.88;;;21.73;44.68
4570;BME280;2297;51.442;6.996;2023-05-08T11:53:21;100791.59;;;21.85;44.25
4570;BME280;2297;51.442;6.996;2023-05-08T11:55:51;100796.44;;;21.78;43.85
4570;BME280;2297;51.442;6.996;2023-05-08T11:58:18;100789.91;;;21.68;43.76
4570;BME280;2297;51.442;6.996;2023-05-08T12:00:45;100796.50;;;21.48;44.50
4570;BME280;2297;51.442;6.996;2023-05-08T12:03:13;100798.88;;;21.83;44.65
4570;BME280;2297;51.442;6.996;2023-05-08T12:05:40;100800.69;;;21.97;43.86
4570;BME280;2297;51.442;6.996;2023-05-08T12:08:07;100789.25;;;22.09;43.69
4570;BME280;2297;51.442;6.996;2023-05-08T12:10:39;100794.72;;;22.08;43.11
4570;BME280;2297;51.442;6.996;2023-05-08T12:13:16;100795.78;;;22.05;42.57
4570;BME280;2297;51.442;6.996;2023-05-08T12:15:44;100793.41;;;21.99;42.71
4570;BME280;2297;51.442;6.996;2023-05-08T12:18:11;100798.25;;;22.08;42.48
4570;BME280;2297;51.442;6.996;2023-05-08T12:20:37;100791.47;;;21.72;43.12
4570;BME280;2297;51.442;6.996;2023-05-08T12:23:24;100790.78;;;22.14;43.44
4570;BME280;2297;51.442;6.996;2023-05-08T12:25:52;100786.16;;;22.01;42.93
4570;BME280;2297;51.442;6.996;2023-05-08T12:28:20;100780.28;;;22.23;42.90
4570;BME280;2297;51.442;6.996;2023-05-08T12:30:47;100785.03;;;22.20;42.57
4570;BME280;2297;51.442;6.996;2023-05-08T12:33:14;100780.88;;;22.29;42.97
4570;BME280;2297;51.442;6.996;2023-05-08T12:35:42;100785.03;;;22.20;43.04
4570;BME280;2297;51.442;6.996;2023-05-08T12:38:09;100779.66;;;22.20;43.48
4570;BME280;2297;51.442;6.996;2023-05-08T12:40:40;100781.19;;;22.24;42.69
4570;BME280;2297;51.442;6.996;2023-05-08T12:43:08;100785.19;;;22.17;43.21
4570;BME280;2297;51.442;6.996;2023-05-08T12:45:38;100794.78;;;22.06;43.08
4570;BME280;2297;51.442;6.996;2023-05-08T12:48:06;100787.66;;;21.91;43.05
4570;BME280;2297;51.442;6.996;2023-05-08T12:50:34;100780.84;;;21.85;42.97
4570;BME280;2297;51.442;6.996;2023-05-08T12:53:02;100776.50;;;21.83;43.11
4570;BME280;2297;51.442;6.996;2023-05-08T12:55:31;100774.13;;;21.92;43.04
4570;BME280;2297;51.442;6.996;2023-05-08T12:58:00;100779.88;;;22.01;42.68
4570;BME280;2297;51.442;6.996;2023-05-08T13:00:34;100777.59;;;22.09;42.97
4570;BME280;2297;51.442;6.996;2023-05-08T13:03:03;100773.47;;;22.03;42.12
4570;BME280;2297;51.442;6.996;2023-05-08T13:05:30;100776.91;;;21.91;42.00
4570;BME280;2297;51.442;6.996;2023-05-08T13:08:01;100768.63;;;21.94;42.26
4570;BME280;2297;51.442;6.996;2023-05-08T13:10:47;100771.06;;;21.99;42.22
4570;BME280;2297;51.442;6.996;2023-05-08T13:13:16;100760.88;;;22.18;42.02
4570;BME280;2297;51.442;6.996;2023-05-08T13:15:42;100761.56;;;22.22;42.44
4570;BME280;2297;51.442;6.996;2023-05-08T13:18:11;100759.75;;;22.08;41.87
4570;BME280;2297;51.442;6.996;2023-05-08T13:20:38;100750.13;;;22.18;41.85
4570;BME280;2297;51.442;6.996;2023-05-08T13:23:04;100754.75;;;22.31;41.88
4570;BME280;2297;51.442;6.996;2023-05-08T13:25:32;100746.66;;;22.45;41.05
4570;BME280;2297;51.442;6.996;2023-05-08T13:27:59;100744.41;;;22.66;40.61
4570;BME280;2297;51.442;6.996;2023-05-08T13:30:26;100738.84;;;22.55;40.84
4570;BME280;2297;51.442;6.996;2023-05-08T13:32:53;100738.06;;;22.67;40.61